Terminal Aerodrome Forecast
Issued by NWS

Home | Current Version | Previous Version | Text Only | Print | Product List | Glossary On
Versions: 1 2 3 4 5 6 7 8 9 10 11 12 13 14 15 16 17 18 19 20 21 22 23 24 25
000
FTUS43 KBIS 211100
TAFMOT
TAF
KMOT 211136Z 2112/2212 20004KT P6SM SCT080
     FM211600 17008KT P6SM BKN080
     FM220300 14008KT P6SM VCSH BKN030 OVC080
     FM220800 08008KT 5SM -SN BR OVC015=

USA.gov is the U.S. government's official web portal to all federal, state and local government web resources and services.